Time;durP1;ratioP1;P1;durP2;ratioP2;P2;SDS_P1;SDS_P2;PMS_P1;PMS_P2;Temp;Humidity;BMP_temperature;BMP_pressure;BME280_temperature;BME280_humidity;BME280_pressure;Samples;Min_cycle;Max_cycle;Signal;HPM_P1;HPM_P2
2023/07/12 00:00:26;;;;;;;4.80;4.30;;;19.90;99.90;;;;;;4983686;28;20270;-76
2023/07/12 00:02:54;;;;;;;4.37;3.97;;;19.90;99.90;;;;;;4993298;28;20222;-76
2023/07/12 00:05:23;;;;;;;4.13;3.60;;;19.90;99.90;;;;;;4992044;28;20208;-76
2023/07/12 00:07:50;;;;;;;4.60;3.70;;;19.90;99.90;;;;;;5000201;28;20211;-76
2023/07/12 00:10:19;;;;;;;5.97;4.17;;;19.90;99.90;;;;;;4996108;28;20207;-76
2023/07/12 00:12:47;;;;;;;5.20;3.67;;;19.90;99.90;;;;;;4984897;28;20222;-76
2023/07/12 00:15:19;;;;;;;6.17;4.90;;;19.90;99.90;;;;;;4983649;28;20199;-76
2023/07/12 00:17:46;;;;;;;9.10;8.40;;;19.90;99.90;;;;;;4979276;28;20208;-76
2023/07/12 00:20:23;;;;;;;6.40;5.60;;;19.90;99.90;;;;;;4988246;28;20206;-76
2023/07/12 00:22:51;;;;;;;6.77;6.27;;;19.90;99.90;;;;;;4986732;28;20237;-76
2023/07/12 00:25:20;;;;;;;6.30;5.50;;;19.90;99.90;;;;;;4986058;28;20565;-76
2023/07/12 00:27:47;;;;;;;5.77;5.17;;;19.90;99.90;;;;;;4968803;28;20197;-76
2023/07/12 00:30:18;;;;;;;5.40;4.20;;;19.90;99.90;;;;;;4979690;28;20213;-76
2023/07/12 00:32:47;;;;;;;5.07;4.40;;;19.90;99.90;;;;;;4997775;28;20238;-76
2023/07/12 00:35:16;;;;;;;7.23;6.57;;;19.90;99.90;;;;;;4989293;28;20194;-76
2023/07/12 00:37:48;;;;;;;7.83;7.20;;;19.90;99.90;;;;;;4982863;28;20246;-76
2023/07/12 00:40:27;;;;;;;9.50;8.70;;;19.90;99.90;;;;;;4986067;28;20203;-76
2023/07/12 00:43:01;;;;;;;11.53;10.63;;;19.90;99.90;;;;;;4989760;28;20323;-76
2023/07/12 00:45:30;;;;;;;9.27;8.57;;;19.90;99.90;;;;;;4994965;28;20227;-76
2023/07/12 00:47:57;;;;;;;4.00;3.63;;;19.90;99.90;;;;;;4992909;28;20243;-77
2023/07/12 00:50:24;;;;;;;7.47;4.10;;;19.90;99.90;;;;;;4983309;28;20208;-76
2023/07/12 00:52:54;;;;;;;5.77;4.43;;;19.80;99.90;;;;;;4988155;28;20319;-76
2023/07/12 00:55:58;;;;;;;6.90;4.40;;;19.90;99.90;;;;;;4992205;28;20210;-76
2023/07/12 00:58:30;;;;;;;9.57;8.67;;;19.90;99.90;;;;;;4992991;28;20231;-76
2023/07/12 01:00:59;;;;;;;4.80;4.20;;;19.90;99.90;;;;;;4981883;28;20236;-76
2023/07/12 01:03:29;;;;;;;6.03;4.50;;;19.90;99.90;;;;;;4993156;28;20233;-76
2023/07/12 01:05:56;;;;;;;4.60;4.20;;;19.90;99.90;;;;;;4991480;28;20204;-76
2023/07/12 01:08:24;;;;;;;9.03;5.33;;;19.90;99.90;;;;;;4994359;28;20211;-76
2023/07/12 01:10:52;;;;;;;7.20;4.57;;;19.90;99.90;;;;;;4989006;28;20218;-76
2023/07/12 01:13:21;;;;;;;5.57;4.20;;;19.90;99.90;;;;;;4988458;28;20597;-76
2023/07/12 01:15:48;;;;;;;7.00;5.03;;;19.90;99.90;;;;;;4978759;28;20190;-76
2023/07/12 01:18:15;;;;;;;8.03;7.33;;;19.90;99.90;;;;;;4988766;28;20197;-76
2023/07/12 01:20:53;;;;;;;7.97;7.30;;;20.00;99.90;;;;;;4996490;28;20276;-76
2023/07/12 01:23:19;;;;;;;8.37;7.77;;;20.00;99.90;;;;;;4992852;28;20227;-76
2023/07/12 01:25:47;;;;;;;8.63;7.90;;;20.10;99.90;;;;;;4986686;28;20204;-76
2023/07/12 01:28:14;;;;;;;8.17;7.37;;;20.00;99.90;;;;;;4972934;28;20215;-76
2023/07/12 01:30:41;;;;;;;7.13;6.43;;;20.00;99.90;;;;;;4980667;28;20676;-76
2023/07/12 01:33:08;;;;;;;7.37;6.70;;;20.00;99.90;;;;;;4990309;28;20326;-76
2023/07/12 01:35:35;;;;;;;9.37;6.90;;;19.90;99.90;;;;;;5000309;28;20212;-76
2023/07/12 01:38:04;;;;;;;7.27;6.13;;;20.00;99.90;;;;;;4991824;28;20207;-76
2023/07/12 01:40:30;;;;;;;6.20;5.70;;;19.90;99.90;;;;;;4991145;28;20191;-76
2023/07/12 01:42:57;;;;;;;7.40;6.67;;;19.90;99.90;;;;;;4988759;28;20214;-76
2023/07/12 01:45:24;;;;;;;8.00;7.40;;;19.90;99.90;;;;;;4988093;28;20207;-76
2023/07/12 01:47:51;;;;;;;8.30;7.47;;;19.90;99.90;;;;;;4995024;28;20200;-76
2023/07/12 01:50:18;;;;;;;8.63;7.93;;;19.90;99.90;;;;;;4990303;28;20223;-76
2023/07/12 01:52:44;;;;;;;8.20;7.33;;;19.90;99.90;;;;;;5001494;28;20283;-76
2023/07/12 01:55:13;;;;;;;8.60;7.90;;;19.90;99.90;;;;;;4993320;28;20203;-76
2023/07/12 01:57:41;;;;;;;7.97;7.20;;;19.90;99.90;;;;;;4988049;28;20763;-75
2023/07/12 02:00:09;;;;;;;7.60;7.00;;;19.90;99.90;;;;;;4994802;28;20238;-75
2023/07/12 02:02:43;;;;;;;8.03;7.33;;;19.80;99.90;;;;;;4996439;28;20226;-76
2023/07/12 02:05:10;;;;;;;7.80;7.07;;;19.90;99.90;;;;;;4996555;28;20231;-76
2023/07/12 02:07:36;;;;;;;7.57;4.80;;;19.90;99.90;;;;;;4997456;28;20594;-75
2023/07/12 02:10:16;;;;;;;7.53;5.10;;;19.80;99.90;;;;;;5001916;28;20212;-76
2023/07/12 02:12:43;;;;;;;5.27;4.73;;;19.80;99.90;;;;;;4999142;28;20238;-76
2023/07/12 02:15:12;;;;;;;5.50;4.20;;;19.80;99.90;;;;;;4991451;28;20307;-75
2023/07/12 02:17:39;;;;;;;5.43;4.53;;;19.80;99.90;;;;;;4989403;28;20200;-76
2023/07/12 02:20:08;;;;;;;5.47;4.57;;;19.80;99.90;;;;;;4990530;28;20617;-76
2023/07/12 02:22:38;;;;;;;6.40;4.47;;;19.80;99.90;;;;;;4979021;28;20222;-75
2023/07/12 02:25:05;;;;;;;5.73;4.47;;;19.80;99.90;;;;;;4976947;28;20205;-75
2023/07/12 02:27:33;;;;;;;5.30;4.03;;;19.80;99.90;;;;;;4971452;28;20640;-75
2023/07/12 02:30:00;;;;;;;7.93;4.43;;;19.80;99.90;;;;;;4977498;28;20205;-75
2023/07/12 02:32:28;;;;;;;4.73;4.00;;;19.80;99.90;;;;;;4998290;28;20211;-75
2023/07/12 02:34:55;;;;;;;4.80;4.03;;;19.80;99.90;;;;;;4987334;22;20241;-76
2023/07/12 02:37:22;;;;;;;5.67;4.30;;;19.70;99.90;;;;;;4935075;28;20272;-75
2023/07/12 02:39:49;;;;;;;7.37;4.43;;;19.80;99.90;;;;;;4974100;28;20209;-76
2023/07/12 02:42:15;;;;;;;6.73;4.27;;;19.80;99.90;;;;;;4961969;28;20283;-77
2023/07/12 02:44:44;;;;;;;6.93;4.53;;;19.70;99.90;;;;;;4956733;28;20285;-76
2023/07/12 02:47:12;;;;;;;6.40;4.40;;;19.80;99.90;;;;;;4939916;28;20209;-75
2023/07/12 02:49:39;;;;;;;6.00;4.43;;;19.70;99.90;;;;;;4939766;28;20217;-75
2023/07/12 02:52:07;;;;;;;5.17;4.20;;;19.80;99.90;;;;;;4954262;28;21207;-78
2023/07/12 02:54:34;;;;;;;5.40;4.20;;;19.70;99.90;;;;;;4941661;28;20217;-79
2023/07/12 02:57:03;;;;;;;9.73;5.37;;;19.80;99.90;;;;;;4942650;29;20645;-79
2023/07/12 02:59:30;;;;;;;6.10;4.57;;;19.80;99.90;;;;;;4943617;28;20206;-77
2023/07/12 03:01:58;;;;;;;6.00;4.70;;;19.80;99.90;;;;;;4951581;28;20204;-78
2023/07/12 03:04:25;;;;;;;6.03;4.77;;;19.80;99.90;;;;;;4940099;29;20245;-78
2023/07/12 03:06:52;;;;;;;7.37;5.20;;;19.80;99.90;;;;;;4937281;28;20265;-79
2023/07/12 03:09:19;;;;;;;8.07;5.30;;;19.70;99.90;;;;;;4950674;28;20227;-79
2023/07/12 03:11:46;;;;;;;8.53;5.70;;;19.70;99.90;;;;;;4929624;28;20220;-78
2023/07/12 03:14:15;;;;;;;5.63;5.03;;;19.70;99.90;;;;;;4940016;29;20250;-79
2023/07/12 03:16:42;;;;;;;7.07;5.50;;;19.70;99.90;;;;;;4952681;28;20235;-78
2023/07/12 03:19:11;;;;;;;6.67;5.73;;;19.70;99.90;;;;;;4962443;28;20212;-80
2023/07/12 03:21:38;;;;;;;8.17;5.53;;;19.70;99.90;;;;;;4945164;28;20206;-79
2023/07/12 03:24:05;;;;;;;5.33;4.67;;;19.70;99.90;;;;;;4946174;29;20228;-79
2023/07/12 03:26:33;;;;;;;6.27;4.73;;;19.70;99.90;;;;;;4962899;28;20198;-79
2023/07/12 03:28:59;;;;;;;6.23;4.20;;;19.70;99.90;;;;;;4945358;29;20216;-80
2023/07/12 03:31:28;;;;;;;6.30;4.47;;;19.60;99.90;;;;;;4966173;28;20198;-79
2023/07/12 03:33:56;;;;;;;4.87;4.10;;;19.70;99.90;;;;;;4946420;29;20259;-77
2023/07/12 03:36:28;;;;;;;5.30;4.50;;;19.60;99.90;;;;;;4962994;28;20232;-78
2023/07/12 03:38:55;;;;;;;5.67;4.30;;;19.50;99.90;;;;;;4945760;28;20696;-79
2023/07/12 03:41:23;;;;;;;4.07;3.67;;;19.50;99.90;;;;;;4963761;28;20655;-78
2023/07/12 03:43:50;;;;;;;3.90;3.50;;;19.50;99.90;;;;;;4945300;28;20266;-78
2023/07/12 03:46:17;;;;;;;4.10;3.70;;;19.50;99.90;;;;;;4947487;29;20213;-79
2023/07/12 03:48:44;;;;;;;4.57;4.13;;;19.50;99.90;;;;;;4964432;28;20217;-79
2023/07/12 03:51:12;;;;;;;4.33;4.03;;;19.60;99.90;;;;;;4965184;28;20198;-79
2023/07/12 03:53:40;;;;;;;4.47;3.80;;;19.60;99.90;;;;;;4942629;28;20228;-79
2023/07/12 03:56:07;;;;;;;4.23;3.93;;;19.60;99.90;;;;;;4945762;29;20206;-79
2023/07/12 03:58:36;;;;;;;3.97;3.60;;;19.60;99.90;;;;;;4963474;28;20704;-80
2023/07/12 04:01:05;;;;;;;9.73;9.13;;;19.60;99.90;;;;;;4947981;29;20206;-78
2023/07/12 04:03:32;;;;;;;10.17;9.37;;;19.70;99.90;;;;;;4964354;28;20261;-79
2023/07/12 04:05:59;;;;;;;9.73;9.03;;;19.70;99.90;;;;;;4955886;28;20195;-80
2023/07/12 04:08:25;;;;;;;8.40;7.90;;;19.70;99.90;;;;;;4964165;28;20202;-79
2023/07/12 04:10:55;;;;;;;10.00;9.30;;;19.70;99.90;;;;;;4946301;28;20214;-79
2023/07/12 04:13:22;;;;;;;9.80;9.10;;;19.70;99.90;;;;;;4946025;29;20222;-78
2023/07/12 04:15:53;;;;;;;8.43;7.83;;;19.80;99.90;;;;;;4946287;28;20225;-78
2023/07/12 04:18:19;;;;;;;10.87;9.97;;;19.80;99.90;;;;;;4946764;29;20245;-79
2023/07/12 04:20:46;;;;;;;9.50;8.90;;;19.90;99.90;;;;;;4962909;28;20639;-79
2023/07/12 04:23:13;;;;;;;9.23;8.63;;;19.90;99.90;;;;;;4963318;28;20248;-78
2023/07/12 04:25:40;;;;;;;9.93;9.23;;;19.90;99.90;;;;;;4963499;28;20276;-79
2023/07/12 04:28:08;;;;;;;9.93;9.33;;;20.00;99.90;;;;;;4945319;28;20264;-78
2023/07/12 04:30:35;;;;;;;9.10;8.40;;;20.10;99.90;;;;;;4946379;28;20230;-78
2023/07/12 04:33:02;;;;;;;9.17;8.47;;;20.10;99.90;;;;;;4962692;28;20244;-80
2023/07/12 04:35:29;;;;;;;8.97;8.10;;;20.30;99.90;;;;;;4945867;29;20565;-78
2023/07/12 04:37:55;;;;;;;7.13;4.23;;;20.30;99.90;;;;;;4963281;28;20266;-79
2023/07/12 04:40:22;;;;;;;5.53;4.50;;;20.40;99.90;;;;;;4962691;28;20254;-79
2023/07/12 04:42:49;;;;;;;9.20;8.40;;;20.50;99.90;;;;;;4945423;28;20207;-78
2023/07/12 04:45:17;;;;;;;6.70;6.10;;;20.60;99.90;;;;;;4962920;28;20237;-78
2023/07/12 04:47:44;;;;;;;7.80;7.00;;;20.60;99.90;;;;;;4962654;28;20206;-79
2023/07/12 04:50:13;;;;;;;6.60;6.00;;;20.60;99.90;;;;;;4946277;29;20566;-79
2023/07/12 04:52:40;;;;;;;8.33;6.80;;;20.60;99.90;;;;;;4945138;28;20630;-78
2023/07/12 04:55:21;;;;;;;6.67;6.03;;;20.60;99.90;;;;;;4946000;29;20218;-80
2023/07/12 04:57:48;;;;;;;6.77;6.07;;;20.50;99.90;;;;;;4945432;28;20725;-79
2023/07/12 05:00:17;;;;;;;6.53;5.93;;;20.40;99.90;;;;;;4962188;28;20269;-79
2023/07/12 05:02:44;;;;;;;6.90;6.40;;;20.40;99.90;;;;;;4945717;28;20580;-79
2023/07/12 05:05:11;;;;;;;8.67;7.90;;;20.30;99.90;;;;;;4962332;28;20227;-79
2023/07/12 05:07:38;;;;;;;7.80;7.20;;;20.30;99.90;;;;;;4962212;28;20194;-78
2023/07/12 05:10:07;;;;;;;8.37;7.77;;;20.30;99.90;;;;;;4962794;28;20306;-79
2023/07/12 05:12:34;;;;;;;9.27;8.57;;;20.30;99.90;;;;;;4944700;29;20202;-79
2023/07/12 05:15:01;;;;;;;9.20;8.50;;;20.40;99.90;;;;;;4943912;29;20651;-78
2023/07/12 05:17:29;;;;;;;9.90;8.90;;;20.40;99.90;;;;;;4962117;28;20194;-79
2023/07/12 05:19:57;;;;;;;9.40;8.50;;;20.40;99.90;;;;;;4962665;28;20209;-79
2023/07/12 05:22:24;;;;;;;9.77;8.90;;;20.50;99.90;;;;;;4945009;29;20741;-79
2023/07/12 05:24:51;;;;;;;8.63;8.03;;;20.50;99.90;;;;;;4945543;28;20305;-80
2023/07/12 05:27:17;;;;;;;6.50;5.87;;;20.60;99.90;;;;;;4944419;29;20229;-77
2023/07/12 05:29:44;;;;;;;4.47;4.07;;;20.60;99.90;;;;;;4963663;28;20206;-79
2023/07/12 05:32:12;;;;;;;7.77;7.07;;;20.70;99.90;;;;;;4963219;28;20198;-79
2023/07/12 05:34:41;;;;;;;8.57;7.97;;;20.80;99.90;;;;;;4943657;28;20231;-78
2023/07/12 05:37:08;;;;;;;7.50;6.80;;;20.90;99.90;;;;;;4942775;29;20199;-78
2023/07/12 05:39:34;;;;;;;4.47;4.07;;;20.90;99.90;;;;;;4961914;28;20253;-77
2023/07/12 05:42:01;;;;;;;7.97;5.47;;;21.00;99.90;;;;;;4944089;28;20207;-78
2023/07/12 05:44:28;;;;;;;8.20;7.00;;;21.10;99.90;;;;;;4961272;28;20222;-79
2023/07/12 05:46:55;;;;;;;9.30;8.60;;;21.20;99.90;;;;;;4944214;28;20217;-78
2023/07/12 05:49:22;;;;;;;5.87;4.23;;;21.30;99.90;;;;;;4962626;28;20266;-78
2023/07/12 05:51:50;;;;;;;4.87;4.07;;;21.30;99.90;;;;;;4961468;28;20206;-79
2023/07/12 05:54:17;;;;;;;6.23;4.43;;;21.40;99.90;;;;;;4962128;28;20243;-79
2023/07/12 05:56:43;;;;;;;6.63;6.00;;;21.50;99.90;;;;;;4943542;28;20241;-80
2023/07/12 05:59:11;;;;;;;8.13;7.33;;;21.50;99.90;;;;;;4963091;28;20263;-82
2023/07/12 06:01:38;;;;;;;11.97;10.87;;;21.70;99.90;;;;;;4961301;28;20199;-78
2023/07/12 06:04:07;;;;;;;7.27;4.10;;;21.80;99.90;;;;;;4951502;28;20215;-79
2023/07/12 06:06:34;;;;;;;5.60;4.60;;;21.90;99.90;;;;;;4960119;28;20241;-78
2023/07/12 06:09:02;;;;;;;7.33;4.80;;;22.00;99.90;;;;;;4942910;28;20222;-78
2023/07/12 06:11:29;;;;;;;10.30;9.40;;;22.20;99.90;;;;;;4959255;28;20611;-78
2023/07/12 06:13:56;;;;;;;11.50;10.43;;;22.30;99.90;;;;;;4958341;28;20248;-80
2023/07/12 06:16:22;;;;;;;9.40;8.67;;;22.40;99.90;;;;;;4941336;29;20297;-79
2023/07/12 06:18:49;;;;;;;9.80;8.27;;;22.60;99.90;;;;;;4958639;28;20206;-79
2023/07/12 06:21:16;;;;;;;10.63;9.73;;;23.00;99.90;;;;;;4939889;29;20198;-79
2023/07/12 06:23:43;;;;;;;10.20;9.50;;;23.30;99.90;;;;;;4956543;28;20222;-78
2023/07/12 06:26:11;;;;;;;10.63;8.40;;;23.70;99.90;;;;;;4938271;29;20600;-77
2023/07/12 06:28:38;;;;;;;10.90;10.00;;;24.20;99.90;;;;;;4939137;29;20218;-79
2023/07/12 06:31:05;;;;;;;10.53;9.67;;;24.70;99.90;;;;;;4937947;28;20262;-79
2023/07/12 06:33:32;;;;;;;10.17;9.20;;;25.00;99.90;;;;;;4955689;28;20312;-81
2023/07/12 06:36:00;;;;;;;11.70;10.60;;;25.30;99.90;;;;;;4938213;28;20198;-79
2023/07/12 06:38:30;;;;;;;11.67;10.17;;;25.70;99.90;;;;;;4941750;29;20205;-80
2023/07/12 06:40:58;;;;;;;11.73;10.63;;;26.00;99.90;;;;;;4963789;28;20206;-80
2023/07/12 06:43:26;;;;;;;10.07;9.07;;;26.00;99.90;;;;;;4945388;29;20210;-79
2023/07/12 06:45:55;;;;;;;9.30;8.50;;;26.00;99.90;;;;;;4944109;28;20265;-77
2023/07/12 06:48:22;;;;;;;10.30;8.63;;;26.00;99.90;;;;;;4942679;28;20678;-77
2023/07/12 06:50:49;;;;;;;9.63;8.73;;;26.00;99.90;;;;;;4959901;28;20226;-78
2023/07/12 06:53:16;;;;;;;11.07;9.90;;;26.00;99.90;;;;;;4940897;28;20226;-78
2023/07/12 06:55:44;;;;;;;10.00;9.10;;;26.00;99.90;;;;;;4960957;28;20202;-76
2023/07/12 06:58:11;;;;;;;9.50;8.60;;;26.40;99.90;;;;;;4936194;29;20230;-78
2023/07/12 07:00:41;;;;;;;9.67;8.67;;;27.10;99.90;;;;;;4960901;28;20198;-78
2023/07/12 07:03:09;;;;;;;11.13;8.90;;;27.70;99.90;;;;;;4940246;29;20219;-79
2023/07/12 07:05:37;;;;;;;9.10;8.20;;;28.60;99.90;;;;;;4942872;29;20314;-79
2023/07/12 07:08:05;;;;;;;9.23;8.07;;;29.20;99.90;;;;;;4960201;28;20199;-78
2023/07/12 07:10:32;;;;;;;9.03;7.47;;;29.50;99.90;;;;;;4960438;28;20242;-78
2023/07/12 07:12:59;;;;;;;9.67;7.80;;;29.60;99.90;;;;;;4959660;28;20206;-78
2023/07/12 07:15:25;;;;;;;7.90;7.20;;;29.30;99.90;;;;;;4939031;28;20194;-79
2023/07/12 07:17:54;;;;;;;8.10;7.30;;;29.30;99.90;;;;;;4937689;28;20257;-81
2023/07/12 07:20:21;;;;;;;7.97;7.27;;;29.60;99.90;;;;;;4938251;29;20290;-79
2023/07/12 07:22:48;;;;;;;10.23;7.73;;;30.10;99.90;;;;;;4936674;28;20306;-80
2023/07/12 07:25:15;;;;;;;9.03;7.60;;;30.50;99.90;;;;;;4939039;29;20314;-81
2023/07/12 07:27:42;;;;;;;8.30;7.50;;;30.40;99.90;;;;;;4957493;28;20210;-80
2023/07/12 07:30:09;;;;;;;8.80;7.90;;;30.40;99.90;;;;;;4958058;28;20198;-81
2023/07/12 07:32:36;;;;;;;8.30;7.50;;;30.40;99.90;;;;;;4961371;28;20234;-80
2023/07/12 07:35:04;;;;;;;7.67;6.97;;;30.30;99.90;;;;;;4942073;28;20250;-79
2023/07/12 07:37:31;;;;;;;7.63;7.00;;;30.30;99.90;;;;;;4941737;29;20226;-80
2023/07/12 07:39:58;;;;;;;10.23;8.17;;;30.20;99.90;;;;;;4941660;28;20578;-79
2023/07/12 07:42:25;;;;;;;9.13;7.63;;;30.30;99.90;;;;;;4941947;29;20774;-81
2023/07/12 07:44:52;;;;;;;8.67;7.77;;;30.00;99.90;;;;;;4955622;28;20254;-79
2023/07/12 07:47:19;;;;;;;10.23;8.30;;;30.00;99.90;;;;;;4941275;29;20270;-79
2023/07/12 07:49:45;;;;;;;9.97;8.67;;;29.80;99.90;;;;;;4931762;28;20207;-78
2023/07/12 07:52:14;;;;;;;11.50;9.90;;;29.70;99.90;;;;;;4956358;28;20227;-79
2023/07/12 07:54:40;;;;;;;10.77;8.97;;;29.80;99.90;;;;;;4937695;29;20226;-79
2023/07/12 07:57:08;;;;;;;9.70;8.70;;;30.20;99.90;;;;;;4956227;28;20203;-79
2023/07/12 07:59:34;;;;;;;9.67;8.67;;;30.20;99.90;;;;;;4960077;28;20190;-78
2023/07/12 08:02:01;;;;;;;9.90;9.10;;;30.30;99.90;;;;;;4959902;28;20210;-79
2023/07/12 08:04:28;;;;;;;10.43;8.43;;;30.30;99.90;;;;;;4942303;29;20273;-80
2023/07/12 08:06:56;;;;;;;9.60;8.40;;;30.40;99.90;;;;;;4942337;28;20586;-80
2023/07/12 08:09:24;;;;;;;9.07;8.37;;;30.50;99.90;;;;;;4952729;28;20195;-80
2023/07/12 08:11:51;;;;;;;9.03;8.17;;;30.70;99.90;;;;;;4958401;28;20254;-79
2023/07/12 08:14:20;;;;;;;9.23;8.43;;;30.80;99.90;;;;;;4937054;29;20231;-79
2023/07/12 08:16:48;;;;;;;9.20;8.30;;;30.80;99.90;;;;;;4954620;28;20254;-78
2023/07/12 08:19:15;;;;;;;8.50;7.80;;;30.80;99.90;;;;;;4939975;29;20203;-79
2023/07/12 08:21:42;;;;;;;8.70;8.00;;;31.10;99.90;;;;;;4940312;29;20211;-80
2023/07/12 08:24:09;;;;;;;6.57;6.07;;;31.40;99.90;;;;;;4939862;28;20234;-81
2023/07/12 08:26:37;;;;;;;6.43;5.83;;;31.50;99.90;;;;;;4957353;28;20647;-78
2023/07/12 08:29:05;;;;;;;7.27;6.67;;;31.50;99.90;;;;;;4940047;28;20265;-80
2023/07/12 08:31:32;;;;;;;7.27;6.50;;;31.70;99.90;;;;;;4939779;29;20657;-80
2023/07/12 08:33:58;;;;;;;7.87;7.17;;;32.00;99.90;;;;;;4940714;28;20286;-79
2023/07/12 08:36:25;;;;;;;7.60;6.90;;;32.00;99.90;;;;;;4956330;28;20226;-79
2023/07/12 08:38:52;;;;;;;8.13;7.23;;;31.90;99.90;;;;;;4939669;28;20210;-79
2023/07/12 08:41:24;;;;;;;8.07;7.37;;;31.90;99.90;;;;;;4938495;28;20218;-79
2023/07/12 08:43:53;;;;;;;7.63;6.82;;;32.00;99.90;;;;;;4938618;28;20230;-79
2023/07/12 08:46:25;;;;;;;9.02;7.05;;;32.20;99.90;;;;;;4955619;28;20219;-80
2023/07/12 08:48:54;;;;;;;7.45;6.75;;;32.10;99.90;;;;;;4938367;28;20212;-80
2023/07/12 08:51:27;;;;;;;7.15;6.45;;;32.00;99.90;;;;;;4957132;28;20285;-78
2023/07/12 08:53:54;;;;;;;7.93;7.13;;;32.00;99.90;;;;;;4957116;28;20343;-76
2023/07/12 08:56:21;;;;;;;7.90;7.15;;;32.30;99.90;;;;;;4957995;28;20253;-79
2023/07/12 08:58:50;;;;;;;8.25;7.40;;;32.50;99.90;;;;;;4957524;28;20213;-79
2023/07/12 09:01:37;;;;;;;8.88;7.45;;;32.60;99.90;;;;;;4936726;29;20558;-81
2023/07/12 09:04:16;;;;;;;7.97;7.07;;;32.70;99.90;;;;;;4956085;28;20241;-79
2023/07/12 09:06:42;;;;;;;8.05;7.35;;;33.00;99.90;;;;;;4956202;28;20203;-81
2023/07/12 09:09:10;;;;;;;7.60;6.72;;;33.10;99.90;;;;;;4938266;28;20206;-80
2023/07/12 09:11:38;;;;;;;9.38;7.40;;;33.20;99.90;;;;;;4938177;29;20206;-78
2023/07/12 09:14:05;;;;;;;7.50;6.90;;;33.00;99.90;;;;;;4958625;28;20249;-79
2023/07/12 09:16:35;;;;;;;9.73;7.03;;;32.70;99.90;;;;;;4955461;28;20194;-79
2023/07/12 09:19:14;;;;;;;8.05;7.22;;;31.90;99.90;;;;;;4938713;28;20681;-79
2023/07/12 09:21:48;;;;;;;8.23;7.43;;;31.70;99.90;;;;;;4951628;28;20202;-79
2023/07/12 09:24:21;;;;;;;7.93;7.13;;;31.60;99.90;;;;;;4938567;29;20222;-79
2023/07/12 09:26:49;;;;;;;7.70;6.95;;;30.90;99.90;;;;;;4938383;28;20301;-79
2023/07/12 09:29:20;;;;;;;7.40;6.65;;;30.90;99.90;;;;;;4935906;29;20213;-79
2023/07/12 09:31:51;;;;;;;7.20;6.60;;;31.10;99.90;;;;;;4938782;29;20303;-80
2023/07/12 09:34:21;;;;;;;7.20;6.50;;;31.40;99.90;;;;;;4935861;28;20227;-79
2023/07/12 09:36:56;;;;;;;6.87;6.23;;;31.50;99.90;;;;;;4932043;29;20203;-79
2023/07/12 09:39:23;;;;;;;7.10;6.50;;;31.70;99.90;;;;;;4946854;28;20203;-80
2023/07/12 09:41:54;;;;;;;7.47;6.82;;;32.10;99.90;;;;;;4939594;29;20210;-81
2023/07/12 09:44:21;;;;;;;7.23;6.63;;;32.40;99.90;;;;;;4948065;28;20265;-80
2023/07/12 09:46:54;;;;;;;7.43;6.73;;;32.30;99.90;;;;;;4938436;29;20910;-81
2023/07/12 09:49:24;;;;;;;8.10;6.73;;;32.30;99.90;;;;;;4938512;29;20211;-79
2023/07/12 09:51:59;;;;;;;7.77;6.60;;;32.30;99.90;;;;;;4955508;28;20567;-79
2023/07/12 09:54:33;;;;;;;7.97;6.95;;;32.50;99.90;;;;;;4941000;28;20292;-80
2023/07/12 09:57:04;;;;;;;6.30;5.70;;;32.60;99.90;;;;;;4929836;28;20207;-80
2023/07/12 09:59:39;;;;;;;7.63;6.93;;;32.50;99.90;;;;;;4955375;28;20194;-80
2023/07/12 10:02:20;;;;;;;7.00;6.50;;;32.80;99.90;;;;;;4938030;28;20210;-80
2023/07/12 10:04:50;;;;;;;7.70;7.00;;;32.80;99.90;;;;;;4956126;28;20278;-80
2023/07/12 10:07:29;;;;;;;7.22;6.72;;;33.20;99.90;;;;;;4939191;28;20688;-79
2023/07/12 10:09:57;;;;;;;7.35;6.80;;;33.10;99.90;;;;;;4939193;28;20209;-80
2023/07/12 10:12:33;;;;;;;7.35;6.65;;;32.90;99.90;;;;;;4939180;29;20198;-80
2023/07/12 10:15:01;;;;;;;7.68;6.97;;;33.10;99.90;;;;;;4938204;28;20222;-80
2023/07/12 10:17:35;;;;;;;7.32;6.72;;;33.10;99.90;;;;;;4931364;29;20203;-80
2023/07/12 10:20:03;;;;;;;7.35;6.65;;;33.30;99.90;;;;;;4933026;28;20211;-79
2023/07/12 10:22:34;;;;;;;7.22;6.53;;;33.60;99.90;;;;;;4931815;29;20213;-80
2023/07/12 10:25:06;;;;;;;6.85;6.25;;;33.60;99.90;;;;;;4959572;28;20221;-80
2023/07/12 10:27:38;;;;;;;7.88;7.18;;;33.00;99.90;;;;;;4938113;29;20266;-80
2023/07/12 10:30:10;;;;;;;6.93;5.65;;;32.60;99.90;;;;;;4937532;28;20293;-79
2023/07/12 10:32:43;;;;;;;6.95;6.35;;;32.60;99.90;;;;;;4935724;29;20225;-79
2023/07/12 10:35:19;;;;;;;6.00;5.40;;;32.60;99.90;;;;;;4955351;28;20222;-81
2023/07/12 10:37:50;;;;;;;6.17;5.63;;;32.50;99.90;;;;;;4937823;29;20199;-80
2023/07/12 10:40:22;;;;;;;6.73;6.10;;;32.30;99.90;;;;;;4955275;28;20190;-79
2023/07/12 10:42:54;;;;;;;7.30;6.55;;;32.30;99.90;;;;;;4955853;28;20226;-79
2023/07/12 10:45:26;;;;;;;7.03;6.43;;;32.20;99.90;;;;;;4937796;29;20789;-80
2023/07/12 10:47:56;;;;;;;6.93;6.37;;;32.10;99.90;;;;;;4938524;29;20210;-80
2023/07/12 10:50:28;;;;;;;7.17;6.57;;;31.90;99.90;;;;;;4938424;29;20202;-79
2023/07/12 10:52:59;;;;;;;7.37;6.67;;;31.90;99.90;;;;;;4938601;29;20206;-80
2023/07/12 10:55:47;;;;;;;7.50;6.80;;;31.90;99.90;;;;;;4948722;28;20218;-79
2023/07/12 10:58:27;;;;;;;7.13;6.53;;;31.80;99.90;;;;;;4955196;28;20206;-80
2023/07/12 11:00:56;;;;;;;7.63;6.67;;;31.60;99.90;;;;;;4942933;29;20238;-79
2023/07/12 11:03:39;;;;;;;6.47;5.70;;;31.40;99.90;;;;;;4960128;28;20229;-80
2023/07/12 11:06:20;;;;;;;7.83;7.10;;;31.30;99.90;;;;;;4962256;28;20222;-79
2023/07/12 11:08:55;;;;;;;7.53;6.93;;;31.30;99.90;;;;;;4942635;29;20206;-79
2023/07/12 11:11:42;;;;;;;7.40;6.80;;;31.30;99.90;;;;;;4952880;28;20257;-80
2023/07/12 11:14:35;;;;;;;7.17;6.60;;;31.30;99.90;;;;;;4961002;28;20739;-80
2023/07/12 11:17:13;;;;;;;7.50;6.20;;;31.30;99.90;;;;;;4928796;28;20206;-79
2023/07/12 11:20:04;;;;;;;7.07;5.93;;;31.40;99.90;;;;;;4959868;28;20269;-81
2023/07/12 11:22:55;;;;;;;7.10;6.50;;;31.40;99.90;;;;;;4970147;28;20202;-82
2023/07/12 11:25:40;;;;;;;7.80;7.10;;;31.40;99.90;;;;;;4965544;28;20229;-79
2023/07/12 11:28:28;;;;;;;7.97;7.27;;;31.50;99.90;;;;;;4963425;28;20254;-78
2023/07/12 11:31:15;;;;;;;7.63;6.97;;;31.50;99.90;;;;;;4965607;28;20207;-79
2023/07/12 11:33:47;;;;;;;8.00;7.23;;;31.50;99.90;;;;;;4950619;28;20248;-79
2023/07/12 11:36:21;;;;;;;7.87;7.27;;;31.50;99.90;;;;;;4963301;28;20199;-78
2023/07/12 11:38:49;;;;;;;9.10;7.17;;;31.40;99.90;;;;;;4941170;29;20264;-77
2023/07/12 11:41:19;;;;;;;8.77;7.87;;;31.50;99.90;;;;;;4963156;28;20217;-78
2023/07/12 11:43:46;;;;;;;8.83;7.93;;;31.30;99.90;;;;;;4963449;28;20218;-78
2023/07/12 11:46:18;;;;;;;9.10;8.23;;;31.20;99.90;;;;;;4963433;28;20765;-79
2023/07/12 11:48:50;;;;;;;8.33;6.77;;;31.10;99.90;;;;;;4963049;28;20203;-79
2023/07/12 11:51:22;;;;;;;7.47;6.10;;;30.90;99.90;;;;;;4946870;28;20234;-79
2023/07/12 11:53:54;;;;;;;8.37;6.13;;;30.90;99.90;;;;;;4945919;29;20227;-78
2023/07/12 11:56:20;;;;;;;7.97;7.27;;;31.10;99.90;;;;;;4963656;28;20623;-78
2023/07/12 11:58:47;;;;;;;8.37;7.63;;;31.10;99.90;;;;;;4946553;29;20226;-79
2023/07/12 12:01:17;;;;;;;8.80;7.90;;;31.10;99.90;;;;;;4963229;28;20199;-79
2023/07/12 12:03:48;;;;;;;9.17;7.90;;;31.00;99.90;;;;;;4945983;29;20226;-79
2023/07/12 12:06:15;;;;;;;7.97;7.27;;;31.20;99.90;;;;;;4946896;28;20224;-77
2023/07/12 12:08:48;;;;;;;8.40;7.60;;;31.30;99.90;;;;;;4946601;28;20226;-77
2023/07/12 12:11:15;;;;;;;8.27;7.47;;;31.40;99.90;;;;;;4963784;28;20206;-78
2023/07/12 12:13:47;;;;;;;8.40;7.70;;;31.60;99.90;;;;;;4963679;28;20249;-78
2023/07/12 12:16:20;;;;;;;8.90;8.00;;;31.60;99.90;;;;;;4962763;28;20206;-78
2023/07/12 12:18:53;;;;;;;8.07;7.37;;;31.90;99.90;;;;;;4946849;29;20272;-77
2023/07/12 12:21:21;;;;;;;9.30;7.63;;;31.90;99.90;;;;;;4945949;28;20215;-78
2023/07/12 12:23:56;;;;;;;8.53;7.73;;;32.00;99.90;;;;;;4946584;29;20222;-78
2023/07/12 12:26:26;;;;;;;9.00;8.30;;;31.90;99.90;;;;;;4946496;28;20225;-77
2023/07/12 12:28:58;;;;;;;8.87;8.00;;;31.80;99.90;;;;;;4945434;29;20207;-79
2023/07/12 12:31:27;;;;;;;8.90;8.20;;;31.70;99.90;;;;;;4964386;28;20254;-78
2023/07/12 12:34:03;;;;;;;8.60;7.90;;;31.60;99.90;;;;;;4962948;28;20234;-77
2023/07/12 12:36:31;;;;;;;8.77;7.97;;;31.50;99.90;;;;;;4963870;28;20194;-78
2023/07/12 12:39:05;;;;;;;10.90;8.23;;;31.50;99.90;;;;;;4946170;29;20217;-78
2023/07/12 12:41:43;;;;;;;8.70;8.00;;;31.40;99.90;;;;;;4961332;28;20612;-79
2023/07/12 12:44:17;;;;;;;9.03;8.23;;;31.20;99.90;;;;;;4946122;28;20284;-78
2023/07/12 12:46:45;;;;;;;9.43;8.40;;;31.20;99.90;;;;;;4961213;28;20231;-77
2023/07/12 12:49:20;;;;;;;8.53;7.83;;;31.20;99.90;;;;;;4959622;28;20199;-79
2023/07/12 12:51:50;;;;;;;9.23;8.33;;;31.40;99.90;;;;;;4943703;29;20681;-79
2023/07/12 12:54:18;;;;;;;8.87;8.17;;;31.30;99.90;;;;;;4963701;28;20601;-79
2023/07/12 12:56:46;;;;;;;8.83;8.07;;;31.40;99.90;;;;;;4959813;28;20198;-79